createdAt,value
2018-09-17T00:00:42.321Z,99.90
2018-09-17T00:03:11.125Z,99.90
2018-09-17T00:05:40.331Z,99.90
2018-09-17T00:08:09.835Z,99.90
2018-09-17T00:10:38.627Z,99.90
2018-09-17T00:13:07.921Z,99.90
2018-09-17T00:15:36.701Z,99.90
2018-09-17T00:18:05.666Z,99.90
2018-09-17T00:20:34.860Z,99.90
2018-09-17T00:23:03.801Z,99.90
2018-09-17T00:25:32.352Z,99.90
2018-09-17T00:28:01.191Z,99.90
2018-09-17T00:30:30.600Z,99.90
2018-09-17T00:32:59.459Z,99.90
2018-09-17T00:35:28.471Z,99.90
2018-09-17T00:37:57.371Z,99.90
2018-09-17T00:40:26.098Z,99.90
2018-09-17T00:42:54.880Z,99.90
2018-09-17T00:45:23.878Z,99.90
2018-09-17T00:47:52.553Z,99.90
2018-09-17T00:50:21.200Z,99.90
2018-09-17T00:52:50.145Z,99.90
2018-09-17T00:55:19.821Z,99.90
2018-09-17T00:57:48.743Z,99.90
2018-09-17T01:00:17.548Z,99.90
2018-09-17T01:02:47.518Z,99.90
2018-09-17T01:05:17.556Z,99.90
2018-09-17T01:07:46.822Z,99.90
2018-09-17T01:10:15.672Z,99.90
2018-09-17T01:12:44.501Z,99.90
2018-09-17T01:15:13.491Z,99.90
2018-09-17T01:17:42.266Z,99.90
2018-09-17T01:20:11.037Z,99.90
2018-09-17T01:22:39.942Z,99.90
2018-09-17T01:25:08.875Z,99.90
2018-09-17T01:27:38.026Z,99.90
2018-09-17T01:30:07.060Z,99.90
2018-09-17T01:32:35.866Z,99.90
2018-09-17T01:35:04.448Z,99.90
2018-09-17T01:37:33.223Z,99.90
2018-09-17T01:40:02.120Z,99.90
2018-09-17T01:42:30.939Z,99.90
2018-09-17T01:44:59.751Z,99.90
2018-09-17T01:47:28.606Z,99.90
2018-09-17T01:49:58.267Z,99.90
2018-09-17T01:52:27.436Z,99.90
2018-09-17T01:54:56.357Z,99.90
2018-09-17T01:57:25.444Z,99.90
2018-09-17T01:59:54.314Z,99.90
2018-09-17T02:02:23.307Z,99.90
2018-09-17T02:04:52.204Z,99.90
2018-09-17T02:07:21.092Z,99.90
2018-09-17T02:09:50.128Z,99.90
2018-09-17T02:12:18.873Z,99.90
2018-09-17T02:14:47.025Z,99.90
2018-09-17T02:17:15.201Z,99.90
2018-09-17T02:19:44.110Z,99.90
2018-09-17T02:22:12.798Z,99.90
2018-09-17T02:24:41.656Z,99.90
2018-09-17T02:27:10.656Z,99.90
2018-09-17T02:29:39.600Z,99.90
2018-09-17T02:32:09.510Z,99.90
2018-09-17T02:34:38.506Z,99.90
2018-09-17T02:37:07.359Z,99.90
2018-09-17T02:39:36.715Z,99.90
2018-09-17T02:42:06.186Z,99.90
2018-09-17T02:44:35.244Z,99.90
2018-09-17T02:47:04.365Z,99.90
2018-09-17T02:49:33.516Z,99.90
2018-09-17T02:52:02.231Z,99.90
2018-09-17T02:54:31.499Z,99.90
2018-09-17T02:57:00.174Z,99.90
2018-09-17T02:59:29.468Z,99.90
2018-09-17T03:01:58.489Z,99.90
2018-09-17T03:04:27.942Z,99.90
2018-09-17T03:06:56.950Z,99.90
2018-09-17T03:09:25.938Z,99.90
2018-09-17T03:11:54.997Z,99.90
2018-09-17T03:14:30.020Z,99.90
2018-09-17T03:17:12.412Z,99.90
2018-09-17T03:19:42.203Z,99.90
2018-09-17T03:22:11.998Z,99.90
2018-09-17T03:24:40.907Z,99.90
2018-09-17T03:27:09.942Z,99.90
2018-09-17T03:29:38.823Z,99.90
2018-09-17T03:32:07.720Z,99.90
2018-09-17T03:34:36.753Z,99.90
2018-09-17T03:37:05.687Z,99.90
2018-09-17T03:39:34.673Z,99.90
2018-09-17T03:42:03.744Z,99.90
2018-09-17T03:44:32.705Z,99.90
2018-09-17T03:47:02.262Z,99.90
2018-09-17T03:49:31.573Z,99.90
2018-09-17T03:52:00.755Z,99.90
2018-09-17T03:54:29.700Z,99.90
2018-09-17T03:56:58.684Z,99.90
2018-09-17T03:59:27.595Z,99.90
2018-09-17T04:01:56.757Z,99.90
2018-09-17T04:04:25.784Z,99.90
2018-09-17T04:06:54.958Z,99.90
2018-09-17T04:09:24.418Z,99.90
2018-09-17T04:11:53.522Z,99.90
2018-09-17T04:14:22.584Z,99.90
2018-09-17T04:16:52.130Z,99.90
2018-09-17T04:19:21.063Z,99.90
2018-09-17T04:21:49.905Z,99.90
2018-09-17T04:24:18.891Z,99.90
2018-09-17T04:26:48.043Z,99.90
2018-09-17T04:29:16.619Z,99.90
2018-09-17T04:31:45.568Z,99.90
2018-09-17T04:34:14.602Z,99.90
2018-09-17T04:36:43.793Z,99.90
2018-09-17T04:39:14.591Z,99.90
2018-09-17T04:41:43.622Z,99.90
2018-09-17T04:44:12.688Z,99.90
2018-09-17T04:46:42.495Z,99.90
2018-09-17T04:49:11.403Z,99.90
2018-09-17T04:51:40.329Z,99.90
2018-09-17T04:54:09.157Z,99.90
2018-09-17T04:56:38.429Z,99.90
2018-09-17T04:59:07.968Z,99.90
2018-09-17T05:01:37.136Z,99.90
2018-09-17T05:04:06.543Z,99.90
2018-09-17T05:06:36.690Z,99.90
2018-09-17T05:09:07.592Z,99.90
2018-09-17T05:11:37.327Z,99.90
2018-09-17T05:14:06.328Z,99.90
2018-09-17T05:16:35.161Z,99.90
2018-09-17T05:19:04.333Z,99.90
2018-09-17T05:21:33.223Z,99.90
2018-09-17T05:24:02.046Z,99.90
2018-09-17T05:26:30.836Z,99.90
2018-09-17T05:28:59.742Z,99.90
2018-09-17T05:31:28.654Z,99.90
2018-09-17T05:33:57.844Z,99.90
2018-09-17T05:36:27.093Z,99.90
2018-09-17T05:38:55.816Z,99.90
2018-09-17T05:41:24.971Z,99.90
2018-09-17T05:43:53.724Z,99.90
2018-09-17T05:46:22.688Z,99.90
2018-09-17T05:48:52.177Z,99.90
2018-09-17T05:51:20.944Z,99.90
2018-09-17T05:53:49.745Z,99.90
2018-09-17T05:56:18.335Z,99.90
2018-09-17T05:58:47.405Z,99.90
2018-09-17T06:01:17.394Z,99.90
2018-09-17T06:03:46.268Z,99.90
2018-09-17T06:06:14.871Z,99.90
2018-09-17T06:08:43.658Z,99.90
2018-09-17T06:11:12.457Z,99.90
2018-09-17T06:13:41.267Z,99.90
2018-09-17T06:16:09.993Z,99.90
2018-09-17T06:18:38.649Z,99.90
2018-09-17T06:21:07.575Z,99.90
2018-09-17T06:23:36.417Z,99.90
2018-09-17T06:26:05.140Z,99.90
2018-09-17T06:28:34.625Z,99.90
2018-09-17T06:31:03.320Z,99.90
2018-09-17T06:33:31.934Z,99.90
2018-09-17T06:36:00.836Z,99.90
2018-09-17T06:38:29.742Z,99.90
2018-09-17T06:40:58.374Z,99.90
2018-09-17T06:43:27.111Z,99.90
2018-09-17T06:45:56.060Z,99.90
2018-09-17T06:48:24.854Z,99.90
2018-09-17T06:50:54.274Z,99.90
2018-09-17T06:53:22.891Z,99.90
2018-09-17T06:55:51.558Z,99.90
2018-09-17T06:58:20.554Z,99.90
2018-09-17T07:00:49.538Z,99.90
2018-09-17T07:03:18.233Z,99.90
2018-09-17T07:05:46.849Z,99.90
2018-09-17T07:08:15.620Z,99.90
2018-09-17T07:10:44.346Z,99.90
2018-09-17T07:13:13.067Z,99.90
2018-09-17T07:15:41.946Z,99.90
2018-09-17T07:18:10.723Z,99.90
2018-09-17T07:20:39.508Z,99.90
2018-09-17T07:23:08.227Z,99.90
2018-09-17T07:25:36.847Z,99.90
2018-09-17T07:28:05.915Z,99.90
2018-09-17T07:30:34.670Z,99.80
2018-09-17T07:33:03.369Z,99.20
2018-09-17T07:35:32.432Z,97.70
2018-09-17T07:38:01.100Z,95.90
2018-09-17T07:40:29.856Z,94.30
2018-09-17T07:42:58.437Z,94.20
2018-09-17T07:45:27.169Z,92.80
2018-09-17T07:47:56.723Z,92.70
2018-09-17T07:50:25.358Z,92.60
2018-09-17T07:52:54.051Z,91.70
2018-09-17T07:55:23.856Z,91.00
2018-09-17T07:57:52.804Z,90.50
2018-09-17T08:00:21.534Z,90.30
2018-09-17T08:02:50.441Z,89.90
2018-09-17T08:05:20.884Z,89.10
2018-09-17T08:07:49.896Z,88.60
2018-09-17T08:10:20.706Z,87.30
2018-09-17T08:12:50.898Z,86.30
2018-09-17T08:15:21.909Z,85.20
2018-09-17T08:17:52.702Z,84.10
2018-09-17T08:20:21.885Z,82.70
2018-09-17T08:22:51.523Z,81.40
2018-09-17T08:25:20.842Z,80.00
2018-09-17T08:27:50.385Z,79.50
2018-09-17T08:30:19.842Z,79.00
2018-09-17T08:32:49.556Z,78.00
2018-09-17T08:35:18.596Z,77.00
2018-09-17T08:37:47.728Z,76.40
2018-09-17T08:40:17.597Z,75.50
2018-09-17T08:42:46.962Z,74.30
2018-09-17T08:45:16.237Z,72.90
2018-09-17T08:47:46.501Z,71.50
2018-09-17T08:50:15.578Z,70.70
2018-09-17T08:52:44.657Z,69.50
2018-09-17T08:55:19.508Z,68.60
2018-09-17T08:57:54.266Z,68.10
2018-09-17T09:00:26.987Z,67.50
2018-09-17T09:03:01.032Z,65.60
2018-09-17T09:05:34.573Z,65.30
2018-09-17T09:08:03.307Z,64.70
2018-09-17T09:10:37.625Z,63.70
2018-09-17T09:13:24.661Z,63.00
2018-09-17T09:15:53.276Z,61.30
2018-09-17T09:18:22.105Z,61.10
2018-09-17T09:20:51.466Z,60.50
2018-09-17T09:23:20.607Z,60.00
2018-09-17T09:25:49.395Z,59.90
2018-09-17T09:28:18.209Z,59.00
2018-09-17T09:30:47.050Z,58.60
2018-09-17T09:33:16.100Z,58.20
2018-09-17T09:35:45.414Z,57.90
2018-09-17T09:38:14.441Z,57.20
2018-09-17T09:40:43.279Z,56.40
2018-09-17T09:43:11.959Z,56.00
2018-09-17T09:45:41.091Z,55.90
2018-09-17T09:48:10.035Z,55.40
2018-09-17T09:50:38.795Z,54.30
2018-09-17T09:53:07.450Z,53.40
2018-09-17T09:55:36.324Z,52.10
2018-09-17T09:58:05.523Z,52.60
2018-09-17T10:00:40.435Z,52.30
2018-09-17T10:03:44.904Z,52.20
2018-09-17T10:06:15.281Z,51.70
2018-09-17T10:08:49.808Z,51.80
2018-09-17T10:11:23.702Z,51.20
2018-09-17T10:13:58.270Z,50.30
2018-09-17T10:16:26.974Z,49.60
2018-09-17T10:19:00.914Z,49.90
2018-09-17T10:21:29.597Z,50.00
2018-09-17T10:23:58.407Z,49.90
2018-09-17T10:26:27.320Z,50.00
2018-09-17T10:28:55.977Z,49.60
2018-09-17T10:31:25.044Z,49.00
2018-09-17T10:33:53.954Z,48.70
2018-09-17T10:36:23.953Z,49.10
2018-09-17T10:38:52.847Z,48.80
2018-09-17T10:41:21.716Z,48.60
2018-09-17T10:43:50.785Z,48.80
2018-09-17T10:46:19.876Z,48.10
2018-09-17T10:48:48.840Z,48.40
2018-09-17T10:51:17.695Z,48.20
2018-09-17T10:53:46.733Z,48.30
2018-09-17T10:56:15.261Z,48.20
2018-09-17T10:58:44.027Z,47.80
2018-09-17T11:01:12.877Z,48.00
2018-09-17T11:03:41.588Z,47.80
2018-09-17T11:06:10.199Z,47.30
2018-09-17T11:08:38.748Z,47.80
2018-09-17T11:11:07.710Z,48.10
2018-09-17T11:13:36.214Z,48.30
2018-09-17T11:16:05.140Z,48.60
2018-09-17T11:18:34.494Z,48.10
2018-09-17T11:21:03.326Z,48.10
2018-09-17T11:23:31.947Z,48.50
2018-09-17T11:26:00.649Z,48.00
2018-09-17T11:28:29.582Z,48.20
2018-09-17T11:30:58.346Z,47.90
2018-09-17T11:33:26.965Z,48.10
2018-09-17T11:35:55.881Z,47.40
2018-09-17T11:38:24.738Z,47.00
2018-09-17T11:40:53.316Z,46.70
2018-09-17T11:43:26.763Z,46.60
2018-09-17T11:46:00.087Z,47.30
2018-09-17T11:48:32.467Z,47.10
2018-09-17T11:51:01.218Z,47.20
2018-09-17T11:53:37.142Z,47.80
2018-09-17T11:56:22.020Z,47.70
2018-09-17T12:01:59.386Z,47.60
2018-09-17T12:16:02.024Z,46.80
2018-09-17T12:21:24.345Z,46.60
2018-09-17T12:23:53.252Z,47.00
2018-09-17T12:26:22.021Z,46.70
2018-09-17T12:28:56.858Z,46.80
2018-09-17T12:31:26.006Z,47.30
2018-09-17T12:33:55.906Z,47.80
2018-09-17T12:36:24.789Z,47.30
2018-09-17T12:39:01.610Z,47.10
2018-09-17T12:41:33.169Z,47.70
2018-09-17T12:49:49.929Z,47.60
2018-09-17T12:52:21.286Z,47.70
2018-09-17T12:54:50.113Z,47.90
2018-09-17T12:57:25.948Z,47.90
2018-09-17T12:59:57.711Z,48.10
2018-09-17T13:02:28.192Z,48.00
2018-09-17T13:04:58.178Z,47.80
2018-09-17T13:07:33.202Z,48.00
2018-09-17T13:10:02.709Z,48.20
2018-09-17T13:12:31.582Z,48.40
2018-09-17T13:15:00.326Z,48.60
2018-09-17T13:17:29.013Z,48.70
2018-09-17T13:19:57.997Z,48.80
2018-09-17T13:22:28.239Z,48.90
2018-09-17T13:25:01.726Z,48.80
2018-09-17T13:27:30.186Z,49.40
2018-09-17T13:29:59.690Z,49.00
2018-09-17T13:32:28.615Z,49.10
2018-09-17T13:34:57.883Z,48.70
2018-09-17T13:40:19.769Z,48.50
2018-09-17T13:42:48.958Z,48.50
2018-09-17T13:45:17.925Z,49.10
2018-09-17T13:47:46.747Z,49.30
2018-09-17T13:50:15.849Z,49.70
2018-09-17T13:52:49.000Z,50.30
2018-09-17T13:55:18.810Z,50.00
2018-09-17T13:57:47.704Z,49.90
2018-09-17T14:00:23.175Z,49.10
2018-09-17T14:02:58.409Z,46.60
2018-09-17T14:05:27.749Z,45.90
2018-09-17T14:07:56.649Z,45.70
2018-09-17T14:13:18.508Z,45.20
2018-09-17T14:15:53.972Z,45.10
2018-09-17T14:18:23.130Z,45.20
2018-09-17T14:20:52.686Z,45.80
2018-09-17T14:23:22.385Z,45.90
2018-09-17T14:25:52.778Z,46.20
2018-09-17T14:28:30.640Z,46.70
2018-09-17T14:31:01.309Z,47.00
2018-09-17T14:33:39.726Z,47.10
2018-09-17T14:36:10.944Z,47.30
2018-09-17T14:38:50.762Z,47.40
2018-09-17T14:41:23.826Z,47.80
2018-09-17T14:43:54.602Z,48.00
2018-09-17T14:46:23.819Z,48.20
2018-09-17T14:48:52.992Z,48.60
2018-09-17T14:51:24.219Z,48.90
2018-09-17T14:53:54.595Z,48.90
2018-09-17T14:56:25.047Z,48.90
2018-09-17T14:58:53.907Z,49.00
2018-09-17T15:01:24.710Z,49.30
2018-09-17T15:12:33.836Z,50.80
2018-09-17T15:15:04.859Z,50.60
2018-09-17T15:17:33.915Z,50.50
2018-09-17T15:20:05.436Z,50.30
2018-09-17T15:22:34.933Z,50.40
2018-09-17T15:25:03.669Z,50.70
2018-09-17T15:27:33.212Z,50.90
2018-09-17T15:30:02.130Z,50.60
2018-09-17T15:32:31.574Z,50.50
2018-09-17T15:35:00.229Z,50.60
2018-09-17T15:37:29.251Z,50.90
2018-09-17T15:39:57.938Z,51.10
2018-09-17T15:42:26.781Z,51.60
2018-09-17T15:44:55.463Z,51.60
2018-09-17T15:47:24.196Z,51.90
2018-09-17T15:49:52.791Z,52.20
2018-09-17T15:52:21.366Z,52.70
2018-09-17T15:54:50.144Z,52.10
2018-09-17T15:57:18.986Z,52.30
2018-09-17T15:59:47.856Z,52.50
2018-09-17T16:02:16.714Z,52.50
2018-09-17T16:04:45.821Z,52.60
2018-09-17T16:07:15.243Z,52.90
2018-09-17T16:09:43.965Z,53.30
2018-09-17T16:12:14.109Z,53.50
2018-09-17T16:14:43.234Z,53.70
2018-09-17T16:17:12.305Z,54.00
2018-09-17T16:19:41.402Z,54.20
2018-09-17T16:22:10.552Z,54.40
2018-09-17T16:24:39.761Z,54.00
2018-09-17T16:27:08.503Z,54.40
2018-09-17T16:29:37.549Z,54.50
2018-09-17T16:32:06.760Z,54.50
2018-09-17T16:34:35.556Z,54.70
2018-09-17T16:37:04.396Z,54.80
2018-09-17T16:39:33.366Z,54.90
2018-09-17T16:42:02.384Z,55.00
2018-09-17T16:44:31.057Z,55.10
2018-09-17T16:47:00.185Z,55.30
2018-09-17T16:49:29.457Z,55.60
2018-09-17T16:51:58.147Z,55.80
2018-09-17T16:54:26.630Z,55.90
2018-09-17T16:56:54.518Z,56.90
2018-09-17T16:59:23.201Z,56.80
2018-09-17T17:01:52.818Z,56.90
2018-09-17T17:04:21.257Z,56.90
2018-09-17T17:06:49.092Z,57.00
2018-09-17T17:09:17.697Z,57.20
2018-09-17T17:11:46.645Z,57.90
2018-09-17T17:14:15.675Z,57.50
2018-09-17T17:16:44.830Z,57.70
2018-09-17T17:19:14.336Z,57.80
2018-09-17T17:21:44.154Z,58.00
2018-09-17T17:24:12.574Z,58.20
2018-09-17T17:26:41.691Z,58.50
2018-09-17T17:29:09.941Z,59.00
2018-09-17T17:31:38.332Z,59.10
2018-09-17T17:34:06.876Z,59.30
2018-09-17T17:36:35.355Z,59.70
2018-09-17T17:39:04.245Z,59.80
2018-09-17T17:41:33.617Z,61.30
2018-09-17T17:44:02.786Z,60.60
2018-09-17T17:46:31.568Z,60.70
2018-09-17T17:49:00.046Z,61.00
2018-09-17T17:51:28.936Z,61.50
2018-09-17T17:53:57.404Z,61.70
2018-09-17T17:56:26.181Z,61.60
2018-09-17T18:01:37.351Z,62.10
2018-09-17T18:04:05.962Z,62.50
2018-09-17T18:06:34.332Z,62.60
2018-09-17T18:09:03.320Z,63.40
2018-09-17T18:11:32.953Z,63.70
2018-09-17T18:14:01.230Z,64.10
2018-09-17T18:16:29.631Z,64.30
2018-09-17T18:21:45.465Z,64.80
2018-09-17T18:24:14.307Z,65.90
2018-09-17T18:26:42.504Z,65.60
2018-09-17T18:29:10.750Z,66.60
2018-09-17T18:31:45.807Z,66.20
2018-09-17T18:34:15.220Z,66.20
2018-09-17T18:36:43.978Z,67.40
2018-09-17T18:41:53.216Z,66.90
2018-09-17T18:44:22.197Z,67.20
2018-09-17T18:47:02.673Z,67.50
2018-09-17T18:49:34.877Z,67.60
2018-09-17T18:52:09.965Z,67.90
2018-09-17T18:57:30.947Z,68.40
2018-09-17T19:02:58.508Z,69.00
2018-09-17T19:08:17.841Z,69.60
2018-09-17T19:13:34.454Z,69.60
2018-09-17T19:16:03.317Z,69.60
2018-09-17T19:18:32.355Z,69.80
2018-09-17T19:21:02.199Z,70.20
2018-09-17T19:26:11.943Z,70.50
2018-09-17T19:28:59.283Z,70.70
2018-09-17T19:31:30.828Z,71.00
2018-09-17T19:33:59.800Z,71.30
2018-09-17T19:36:29.870Z,71.60
2018-09-17T19:39:03.481Z,72.10
2018-09-17T19:41:32.176Z,73.50
2018-09-17T19:44:00.647Z,72.80
2018-09-17T19:46:28.909Z,72.90
2018-09-17T19:48:56.945Z,73.10
2018-09-17T19:51:31.098Z,73.50
2018-09-17T19:53:59.020Z,73.90
2018-09-17T19:56:27.202Z,74.20
2018-09-17T19:59:01.528Z,74.30
2018-09-17T20:01:29.769Z,75.30
2018-09-17T20:04:02.288Z,75.00
2018-09-17T20:06:30.372Z,75.80
2018-09-17T20:08:58.533Z,76.30
2018-09-17T20:11:27.213Z,76.70
2018-09-17T20:13:55.505Z,77.30
2018-09-17T20:16:23.690Z,77.70
2018-09-17T20:18:51.878Z,78.20
2018-09-17T20:21:20.058Z,78.70
2018-09-17T20:23:48.307Z,79.20
2018-09-17T20:26:17.109Z,79.90
2018-09-17T20:28:45.166Z,80.30
2018-09-17T20:31:13.300Z,80.70
2018-09-17T20:33:41.357Z,81.00
2018-09-17T20:36:10.060Z,81.30
2018-09-17T20:38:39.188Z,81.40
2018-09-17T20:41:08.029Z,81.50
2018-09-17T20:43:37.338Z,81.50
2018-09-17T20:46:06.303Z,81.50
2018-09-17T20:48:34.956Z,81.40
2018-09-17T20:51:02.959Z,81.70
2018-09-17T20:53:30.823Z,81.60
2018-09-17T20:55:58.983Z,81.60
2018-09-17T20:58:27.467Z,81.40
2018-09-17T21:00:56.375Z,81.70
2018-09-17T21:03:24.717Z,81.50
2018-09-17T21:05:53.445Z,81.40
2018-09-17T21:08:23.594Z,81.00
2018-09-17T21:10:52.149Z,80.70
2018-09-17T21:13:20.831Z,80.60
2018-09-17T21:15:48.799Z,80.30
2018-09-17T21:18:17.989Z,80.50
2018-09-17T21:20:46.909Z,80.50
2018-09-17T21:23:16.127Z,80.30
2018-09-17T21:25:46.109Z,80.20
2018-09-17T21:28:14.948Z,80.80
2018-09-17T21:30:43.915Z,79.90
2018-09-17T21:33:12.626Z,80.50
2018-09-17T21:35:41.245Z,79.60
2018-09-17T21:38:10.688Z,79.50
2018-09-17T21:40:39.792Z,79.60
2018-09-17T21:43:09.368Z,79.70
2018-09-17T21:45:51.554Z,80.00
2018-09-17T21:48:22.085Z,80.20
2018-09-17T21:50:50.979Z,80.60
2018-09-17T21:53:20.329Z,80.70
2018-09-17T21:55:49.448Z,81.80
2018-09-17T21:58:19.310Z,81.10
2018-09-17T22:00:53.827Z,81.30
2018-09-17T22:03:22.666Z,81.50
2018-09-17T22:05:52.106Z,81.70
2018-09-17T22:08:23.022Z,82.00
2018-09-17T22:10:52.817Z,83.20
2018-09-17T22:13:22.538Z,82.60
2018-09-17T22:15:52.420Z,82.90
2018-09-17T22:18:21.544Z,83.00
2018-09-17T22:20:51.568Z,83.20
2018-09-17T22:23:21.148Z,83.70
2018-09-17T22:25:51.197Z,84.00
2018-09-17T22:28:22.201Z,84.20
2018-09-17T22:30:51.067Z,84.60
2018-09-17T22:33:20.918Z,84.80
2018-09-17T22:35:49.526Z,85.30
2018-09-17T22:38:19.057Z,85.80
2018-09-17T22:40:48.084Z,86.20
2018-09-17T22:43:16.813Z,86.60
2018-09-17T22:45:46.087Z,87.10
2018-09-17T22:48:14.935Z,87.40
2018-09-17T22:50:44.816Z,88.00
2018-09-17T22:53:14.104Z,88.20
2018-09-17T22:55:43.258Z,88.50
2018-09-17T22:58:11.923Z,89.00
2018-09-17T23:00:40.287Z,89.40
2018-09-17T23:03:08.460Z,89.80
2018-09-17T23:05:36.391Z,90.00
2018-09-17T23:08:04.726Z,90.40
2018-09-17T23:10:34.007Z,90.60
2018-09-17T23:13:03.270Z,90.80
2018-09-17T23:15:32.110Z,91.10
2018-09-17T23:18:01.017Z,91.40
2018-09-17T23:20:30.348Z,91.60
2018-09-17T23:22:59.653Z,91.90
2018-09-17T23:25:29.387Z,92.40
2018-09-17T23:27:59.454Z,92.40
2018-09-17T23:30:29.042Z,92.60
2018-09-17T23:32:58.704Z,92.80
2018-09-17T23:35:27.672Z,93.30
2018-09-17T23:37:56.314Z,93.60
2018-09-17T23:40:25.744Z,93.90
2018-09-17T23:42:54.494Z,94.30
2018-09-17T23:45:23.229Z,94.60
2018-09-17T23:47:52.986Z,94.90
2018-09-17T23:50:22.161Z,95.30
2018-09-17T23:52:51.985Z,95.70
2018-09-17T23:55:21.671Z,96.20
2018-09-17T23:57:51.191Z,96.50
